Time;durP1;ratioP1;P1;durP2;ratioP2;P2;SDS_P1;SDS_P2;PMS_P1;PMS_P2;Temp;Humidity;BMP_temperature;BMP_pressure;BME280_temperature;BME280_humidity;BME280_pressure;Samples;Min_cycle;Max_cycle;Signal;HPM_P1;HPM_P2
2023/10/01 00:00:38;;;;;;;9.63;3.13;;;11.40;80.20;;;;;;4885738;29;20041;-88
2023/10/01 00:03:06;;;;;;;10.80;3.38;;;11.40;80.10;;;;;;4894758;29;20049;-89
2023/10/01 00:05:33;;;;;;;12.17;3.47;;;11.40;79.80;;;;;;4897517;29;20067;-88
2023/10/01 00:08:01;;;;;;;10.98;3.65;;;11.30;80.20;;;;;;4893655;29;20092;-88
2023/10/01 00:10:28;;;;;;;10.07;2.80;;;11.30;80.10;;;;;;4890724;29;20098;-88
2023/10/01 00:12:56;;;;;;;10.02;2.85;;;11.30;80.20;;;;;;4893644;29;20079;-89
2023/10/01 00:15:25;;;;;;;9.07;2.80;;;11.20;80.30;;;;;;4887560;29;20051;-88
2023/10/01 00:17:52;;;;;;;17.07;3.07;;;11.20;80.00;;;;;;4884426;29;20044;-88
2023/10/01 00:20:24;;;;;;;9.02;2.42;;;11.20;79.70;;;;;;4891345;29;20052;-88
2023/10/01 00:23:05;;;;;;;9.35;2.30;;;11.20;79.70;;;;;;4888955;29;20052;-88
2023/10/01 00:25:35;;;;;;;10.75;2.67;;;11.20;79.40;;;;;;4892379;29;20064;-88
2023/10/01 00:28:07;;;;;;;10.00;2.67;;;11.20;79.70;;;;;;4892866;29;20056;-88
2023/10/01 00:30:36;;;;;;;10.67;3.00;;;11.20;79.60;;;;;;4890134;29;20507;-88
2023/10/01 00:33:05;;;;;;;9.25;2.58;;;11.10;80.10;;;;;;4888903;29;20637;-88
2023/10/01 00:35:36;;;;;;;10.13;2.90;;;11.10;80.40;;;;;;4894793;29;20416;-88
2023/10/01 00:38:04;;;;;;;9.93;3.25;;;11.00;80.90;;;;;;4894215;29;20044;-88
2023/10/01 00:40:31;;;;;;;12.18;3.22;;;10.90;81.10;;;;;;4890793;29;20080;-88
2023/10/01 00:42:58;;;;;;;10.80;2.97;;;10.90;81.20;;;;;;4893643;29;20056;-88
2023/10/01 00:45:25;;;;;;;12.18;3.40;;;10.90;81.10;;;;;;4873413;29;20065;-88
2023/10/01 00:47:53;;;;;;;8.55;3.30;;;10.80;81.20;;;;;;4885270;29;20064;-88
2023/10/01 00:50:22;;;;;;;11.32;2.88;;;10.90;81.10;;;;;;4892808;29;20052;-87
2023/10/01 00:52:51;;;;;;;15.27;3.72;;;10.90;80.90;;;;;;4867058;29;20057;-88
2023/10/01 00:55:20;;;;;;;9.60;3.00;;;10.80;81.00;;;;;;4878273;29;20108;-88
2023/10/01 00:57:49;;;;;;;12.30;3.50;;;10.70;81.30;;;;;;4888456;29;20700;-88
2023/10/01 01:00:19;;;;;;;9.13;2.88;;;10.60;81.40;;;;;;4886929;29;20491;-89
2023/10/01 01:02:58;;;;;;;10.27;3.70;;;10.60;81.50;;;;;;4888366;29;20049;-88
2023/10/01 01:05:37;;;;;;;9.30;3.15;;;10.60;81.70;;;;;;4891087;29;20045;-88
2023/10/01 01:08:21;;;;;;;12.63;2.80;;;10.50;81.80;;;;;;4880772;29;20492;-88
2023/10/01 01:10:51;;;;;;;11.88;2.85;;;10.60;81.60;;;;;;4893790;29;20084;-88
2023/10/01 01:13:24;;;;;;;14.80;3.13;;;10.60;81.50;;;;;;4898592;29;20057;-88
2023/10/01 01:15:52;;;;;;;11.90;2.92;;;10.60;81.40;;;;;;4892454;29;20060;-88
2023/10/01 01:18:20;;;;;;;10.50;2.75;;;10.50;81.50;;;;;;4889619;29;20054;-88
2023/10/01 01:20:57;;;;;;;8.30;3.10;;;10.50;81.60;;;;;;4883864;29;20591;-88
2023/10/01 01:23:26;;;;;;;12.15;2.80;;;10.50;81.50;;;;;;4886132;29;20387;-88
2023/10/01 01:25:54;;;;;;;9.73;2.67;;;10.40;81.90;;;;;;4887610;29;20571;-88
2023/10/01 01:28:27;;;;;;;8.05;2.45;;;10.50;81.90;;;;;;4890005;29;20534;-87
2023/10/01 01:30:55;;;;;;;10.23;2.88;;;10.50;81.70;;;;;;4877907;29;20541;-87
2023/10/01 01:33:26;;;;;;;11.73;3.83;;;10.50;81.70;;;;;;4886917;29;20396;-88
2023/10/01 01:35:54;;;;;;;10.82;3.05;;;10.50;81.70;;;;;;4897913;29;20052;-88
2023/10/01 01:38:22;;;;;;;11.43;3.13;;;10.40;81.70;;;;;;4872352;29;20056;-88
2023/10/01 01:40:53;;;;;;;9.70;3.15;;;10.30;81.90;;;;;;4869740;29;20499;-88
2023/10/01 01:43:30;;;;;;;12.20;3.72;;;10.30;81.90;;;;;;4887998;29;20077;-88
2023/10/01 01:46:03;;;;;;;11.10;3.17;;;10.20;82.00;;;;;;4888458;29;20052;-88
2023/10/01 01:48:33;;;;;;;9.25;3.10;;;10.10;82.10;;;;;;4866096;29;20053;-87
2023/10/01 01:51:02;;;;;;;9.52;3.28;;;10.10;82.50;;;;;;4891363;29;20053;-87
2023/10/01 01:53:36;;;;;;;10.60;3.38;;;10.00;82.70;;;;;;4891787;29;20057;-88
2023/10/01 01:56:09;;;;;;;12.30;3.50;;;10.00;82.80;;;;;;4888836;29;20059;-88
2023/10/01 01:58:39;;;;;;;12.63;3.30;;;10.00;82.90;;;;;;4892383;29;20083;-87
2023/10/01 02:01:08;;;;;;;10.90;2.60;;;9.90;82.90;;;;;;4873577;29;20085;-87
2023/10/01 02:03:39;;;;;;;11.95;3.38;;;9.90;83.20;;;;;;4911658;29;20072;-87
2023/10/01 02:06:07;;;;;;;12.07;3.15;;;9.90;83.10;;;;;;4886699;29;20057;-88
2023/10/01 02:08:49;;;;;;;11.65;3.30;;;9.90;83.40;;;;;;4887760;29;20087;-88
2023/10/01 02:11:21;;;;;;;13.53;3.10;;;9.90;83.30;;;;;;4886975;29;20065;-88
2023/10/01 02:13:51;;;;;;;14.95;3.85;;;9.90;83.20;;;;;;4894181;29;20057;-87
2023/10/01 02:16:19;;;;;;;13.27;3.53;;;9.90;83.10;;;;;;4890741;29;20049;-87
2023/10/01 02:18:56;;;;;;;11.10;3.67;;;9.90;83.10;;;;;;4876876;29;20053;-87
2023/10/01 02:21:42;;;;;;;12.57;3.75;;;9.90;83.30;;;;;;4879666;29;20530;-88
2023/10/01 02:24:19;;;;;;;11.00;3.70;;;9.80;83.30;;;;;;4890464;29;20513;-88
2023/10/01 02:26:47;;;;;;;10.70;3.38;;;9.80;83.60;;;;;;4888671;29;20108;-87
2023/10/01 02:29:16;;;;;;;11.38;3.70;;;9.70;83.70;;;;;;4884476;29;20063;-87
2023/10/01 02:31:55;;;;;;;10.93;3.85;;;9.80;83.80;;;;;;4895058;29;20048;-88
2023/10/01 02:34:23;;;;;;;10.45;3.80;;;9.80;83.90;;;;;;4892688;29;20076;-88
2023/10/01 02:36:51;;;;;;;10.70;3.47;;;9.70;83.90;;;;;;4875236;29;20057;-88
2023/10/01 02:39:21;;;;;;;10.65;3.53;;;9.70;84.00;;;;;;4890406;29;20056;-88
2023/10/01 02:42:09;;;;;;;13.48;3.88;;;9.70;84.30;;;;;;4874423;29;20109;-88
2023/10/01 02:44:47;;;;;;;11.57;3.40;;;9.70;84.30;;;;;;4889490;29;20041;-87
2023/10/01 02:47:20;;;;;;;10.48;3.30;;;9.60;84.40;;;;;;4891486;29;20516;-88
2023/10/01 02:49:53;;;;;;;11.93;3.90;;;9.70;84.40;;;;;;4886149;29;20060;-88
2023/10/01 02:52:25;;;;;;;12.18;3.22;;;9.80;84.00;;;;;;4886177;29;20087;-88
2023/10/01 02:54:54;;;;;;;10.15;3.75;;;9.80;84.00;;;;;;4888134;29;20067;-87
2023/10/01 02:57:26;;;;;;;9.73;3.38;;;9.70;84.20;;;;;;4892739;29;20084;-88
2023/10/01 03:02:50;;;;;;;11.80;3.73;;;9.70;84.40;;;;;;4880623;29;20132;-88
2023/10/01 03:05:23;;;;;;;12.00;3.10;;;9.80;84.40;;;;;;4883944;29;20052;-87
2023/10/01 03:07:52;;;;;;;10.25;3.20;;;9.80;84.30;;;;;;4888501;29;20053;-88
2023/10/01 03:10:26;;;;;;;10.50;3.30;;;9.80;84.20;;;;;;4890475;29;20080;-87
2023/10/01 03:12:59;;;;;;;11.68;3.60;;;9.90;84.00;;;;;;4887425;29;20067;-87
2023/10/01 03:15:29;;;;;;;7.93;2.67;;;9.90;83.90;;;;;;4887984;29;20041;-88
2023/10/01 03:18:34;;;;;;;10.38;3.17;;;10.00;83.90;;;;;;4885352;29;20105;-87
2023/10/01 03:26:09;;;;;;;10.90;3.67;;;10.10;83.20;;;;;;4891806;29;20139;-88
2023/10/01 03:31:26;;;;;;;15.60;4.22;;;10.10;82.80;;;;;;4882600;29;20088;-88
2023/10/01 03:33:53;;;;;;;13.00;4.03;;;10.00;83.10;;;;;;4883040;29;20396;-87
2023/10/01 03:36:25;;;;;;;10.38;3.50;;;9.90;83.40;;;;;;4870806;29;20060;-87
2023/10/01 03:39:25;;;;;;;13.13;3.28;;;9.90;83.50;;;;;;4876450;29;20130;-87
2023/10/01 03:41:52;;;;;;;11.77;2.80;;;9.90;83.60;;;;;;4886435;29;20061;-88
2023/10/01 03:44:59;;;;;;;10.50;3.40;;;9.90;83.60;;;;;;4866443;29;20064;-88
2023/10/01 03:47:10;;;;;;;13.88;4.22;;;9.90;83.60;;;;;;4886195;29;20057;-87
2023/10/01 03:49:40;;;;;;;10.05;3.13;;;9.90;83.70;;;;;;4885886;29;20056;-87
2023/10/01 03:52:09;;;;;;;10.38;2.80;;;9.90;83.80;;;;;;4889550;29;20478;-87
2023/10/01 03:54:53;;;;;;;8.83;3.23;;;9.80;83.70;;;;;;4882481;29;20056;-87
2023/10/01 03:57:23;;;;;;;12.48;3.40;;;9.80;83.80;;;;;;4868603;29;20443;-87
2023/10/01 03:59:53;;;;;;;9.63;3.75;;;9.80;84.00;;;;;;4884170;29;20136;-88
2023/10/01 04:02:27;;;;;;;11.02;3.40;;;9.90;83.90;;;;;;4888192;29;20056;-87
2023/10/01 04:04:58;;;;;;;13.32;3.40;;;10.00;83.80;;;;;;4891089;29;20503;-87
2023/10/01 04:07:43;;;;;;;14.70;3.10;;;10.00;83.40;;;;;;4869073;29;20059;-87
2023/10/01 04:10:28;;;;;;;10.40;3.40;;;10.00;83.30;;;;;;4866803;29;20135;-87
2023/10/01 04:13:00;;;;;;;10.40;3.33;;;10.00;83.30;;;;;;4883837;29;20069;-87
2023/10/01 04:15:30;;;;;;;10.27;3.33;;;10.00;83.40;;;;;;4889005;29;20057;-87
2023/10/01 04:18:09;;;;;;;11.93;3.67;;;10.00;83.30;;;;;;4872410;29;20049;-88
2023/10/01 04:20:36;;;;;;;8.70;2.83;;;10.10;83.30;;;;;;4871777;29;20135;-87
2023/10/01 04:23:06;;;;;;;11.32;3.88;;;10.10;82.90;;;;;;4883820;29;20462;-88
2023/10/01 04:25:38;;;;;;;11.60;3.58;;;10.00;83.00;;;;;;4886119;29;20456;-87
2023/10/01 04:28:05;;;;;;;10.20;3.28;;;10.00;83.20;;;;;;4882179;29;20420;-87
2023/10/01 04:30:34;;;;;;;11.25;3.35;;;10.10;83.30;;;;;;4884322;29;20140;-87
2023/10/01 04:33:17;;;;;;;11.43;3.03;;;10.10;83.30;;;;;;4889076;29;20048;-87
2023/10/01 04:35:51;;;;;;;11.20;3.40;;;10.10;83.30;;;;;;4890188;29;20057;-87
2023/10/01 04:38:21;;;;;;;11.00;3.83;;;10.10;83.30;;;;;;4886673;29;20063;-87
2023/10/01 04:40:49;;;;;;;10.68;3.45;;;10.20;83.20;;;;;;4894935;29;20400;-88
2023/10/01 04:43:16;;;;;;;8.77;3.25;;;10.20;83.00;;;;;;4887758;29;20235;-88
2023/10/01 04:45:44;;;;;;;10.83;3.13;;;10.10;83.20;;;;;;4865493;29;20487;-87
2023/10/01 04:48:33;;;;;;;9.70;3.17;;;10.20;82.90;;;;;;4875524;29;20060;-88
2023/10/01 04:51:02;;;;;;;9.23;3.10;;;10.20;82.70;;;;;;4874595;29;20521;-87
2023/10/01 04:53:30;;;;;;;10.35;3.15;;;10.20;83.10;;;;;;4878767;29;20135;-87
2023/10/01 04:56:00;;;;;;;11.90;3.10;;;10.20;83.20;;;;;;4888601;29;20399;-87
2023/10/01 04:58:38;;;;;;;9.07;2.50;;;10.20;83.50;;;;;;4894377;29;20055;-88
2023/10/01 05:01:12;;;;;;;9.55;3.00;;;10.20;83.70;;;;;;4873306;29;20049;-88
2023/10/01 05:03:39;;;;;;;9.32;3.20;;;10.20;83.50;;;;;;4891277;29;20053;-88
2023/10/01 05:06:12;;;;;;;9.77;3.42;;;10.20;83.40;;;;;;4872770;29;20060;-88
2023/10/01 05:08:41;;;;;;;10.18;2.70;;;10.10;83.70;;;;;;4872721;29;20542;-88
2023/10/01 05:11:13;;;;;;;8.23;3.17;;;10.10;83.90;;;;;;4875844;29;20095;-88
2023/10/01 05:13:42;;;;;;;10.45;3.17;;;10.10;84.00;;;;;;4890850;29;20059;-87
2023/10/01 05:16:14;;;;;;;12.25;3.47;;;10.10;84.30;;;;;;4885312;29;20053;-88
2023/10/01 05:18:48;;;;;;;9.85;3.40;;;10.20;84.40;;;;;;4888960;29;20056;-88
2023/10/01 05:21:18;;;;;;;7.80;2.80;;;10.30;84.30;;;;;;4893479;29;20464;-88
2023/10/01 05:23:47;;;;;;;11.47;3.97;;;10.30;84.20;;;;;;4888891;29;20056;-88
2023/10/01 05:26:20;;;;;;;9.48;3.20;;;10.30;84.00;;;;;;4873440;29;20048;-88
2023/10/01 05:28:48;;;;;;;7.82;3.30;;;10.30;84.00;;;;;;4881853;29;20473;-87
2023/10/01 05:31:16;;;;;;;12.13;3.38;;;10.30;84.10;;;;;;4873783;29;20100;-88
2023/10/01 05:33:47;;;;;;;11.43;3.67;;;10.30;84.20;;;;;;4888654;29;20148;-88
2023/10/01 05:36:16;;;;;;;9.87;3.67;;;10.40;84.20;;;;;;4881840;29;20075;-88
2023/10/01 05:38:44;;;;;;;9.25;2.88;;;10.50;84.00;;;;;;4890268;29;20057;-88
2023/10/01 05:41:16;;;;;;;9.43;3.60;;;10.60;83.70;;;;;;4895541;29;20550;-88
2023/10/01 05:43:43;;;;;;;10.57;3.30;;;10.60;83.10;;;;;;4886748;29;20049;-88
2023/10/01 05:46:11;;;;;;;10.48;2.90;;;10.50;83.10;;;;;;4883811;29;20052;-88
2023/10/01 05:48:43;;;;;;;7.70;2.80;;;10.50;83.40;;;;;;4890428;29;20041;-88
2023/10/01 05:51:12;;;;;;;10.43;3.00;;;10.50;83.50;;;;;;4889207;29;20049;-88
2023/10/01 05:53:40;;;;;;;9.05;2.65;;;10.50;83.50;;;;;;4878344;29;20514;-88
2023/10/01 05:56:10;;;;;;;9.05;3.22;;;10.50;83.50;;;;;;4872063;29;20554;-87
2023/10/01 05:58:41;;;;;;;8.70;2.83;;;10.50;83.50;;;;;;4889190;29;20444;-88
2023/10/01 06:01:16;;;;;;;9.70;3.13;;;10.50;83.30;;;;;;4870027;29;20097;-88
2023/10/01 06:03:45;;;;;;;9.02;3.03;;;10.50;83.40;;;;;;4874249;29;20048;-88
2023/10/01 06:06:25;;;;;;;12.25;3.28;;;10.50;83.40;;;;;;4874174;29;20056;-88
2023/10/01 06:08:59;;;;;;;8.88;3.15;;;10.60;83.10;;;;;;4887192;29;20079;-88
2023/10/01 06:14:39;;;;;;;9.17;2.50;;;10.60;83.00;;;;;;4887886;29;20051;-89
2023/10/01 06:17:07;;;;;;;8.70;2.40;;;10.50;83.00;;;;;;4889162;29;20056;-89
2023/10/01 06:19:38;;;;;;;8.95;2.78;;;10.50;83.30;;;;;;4876264;29;20499;-89
2023/10/01 06:22:22;;;;;;;9.63;3.10;;;10.50;83.70;;;;;;4888881;29;20045;-88
2023/10/01 06:24:51;;;;;;;10.50;3.30;;;10.60;83.70;;;;;;4878824;29;20072;-89
2023/10/01 06:27:18;;;;;;;6.93;2.43;;;10.70;83.70;;;;;;4885678;29;20060;-89
2023/10/01 06:29:52;;;;;;;10.02;3.20;;;10.80;83.60;;;;;;4892077;29;20052;-89
2023/10/01 06:32:23;;;;;;;10.98;2.80;;;10.80;83.70;;;;;;4878282;29;20503;-88
2023/10/01 06:34:53;;;;;;;13.32;3.20;;;10.90;83.60;;;;;;4888640;29;20507;-89
2023/10/01 06:37:21;;;;;;;9.10;3.58;;;11.00;83.50;;;;;;4876117;29;20136;-89
2023/10/01 06:39:48;;;;;;;11.83;3.40;;;11.00;83.60;;;;;;4891258;29;20056;-89
2023/10/01 06:42:23;;;;;;;7.97;2.45;;;11.00;83.40;;;;;;4887472;29;20102;-89
2023/10/01 06:44:55;;;;;;;12.68;2.95;;;11.00;83.50;;;;;;4889496;29;20045;-89
2023/10/01 06:47:23;;;;;;;11.82;3.10;;;11.00;83.40;;;;;;4890944;29;20128;-89
2023/10/01 06:49:59;;;;;;;11.13;3.50;;;11.10;83.60;;;;;;4887231;29;20116;-89
2023/10/01 06:52:28;;;;;;;12.20;3.33;;;11.20;83.80;;;;;;4888347;29;20057;-88
2023/10/01 06:54:57;;;;;;;9.75;3.58;;;11.30;84.00;;;;;;4891145;29;20495;-89
2023/10/01 06:57:27;;;;;;;10.57;3.33;;;11.30;84.10;;;;;;4886702;29;20148;-89
2023/10/01 06:59:59;;;;;;;10.95;3.42;;;11.30;83.80;;;;;;4880589;29;20143;-88
2023/10/01 07:02:28;;;;;;;9.75;4.00;;;11.40;84.00;;;;;;4878839;29;20136;-88
2023/10/01 07:04:58;;;;;;;11.67;4.00;;;11.40;84.20;;;;;;4882239;29;20076;-88
2023/10/01 07:07:40;;;;;;;13.07;3.92;;;11.40;84.10;;;;;;4886489;29;20052;-88
2023/10/01 07:10:11;;;;;;;11.00;3.97;;;11.40;84.00;;;;;;4883878;29;20049;-89
2023/10/01 07:12:53;;;;;;;10.20;4.03;;;11.50;84.00;;;;;;4883303;29;20063;-88
2023/10/01 07:15:21;;;;;;;11.35;3.95;;;11.50;83.70;;;;;;4885316;29;20053;-89
2023/10/01 07:17:48;;;;;;;13.27;4.13;;;11.60;83.70;;;;;;4872428;29;20041;-89
2023/10/01 07:20:18;;;;;;;9.00;4.00;;;11.70;83.70;;;;;;4889059;29;20049;-89
2023/10/01 07:22:46;;;;;;;11.55;3.70;;;11.70;83.80;;;;;;4886647;29;20049;-89
2023/10/01 07:25:37;;;;;;;13.18;3.42;;;11.80;83.60;;;;;;4887604;29;20048;-89
2023/10/01 07:28:12;;;;;;;9.75;3.42;;;11.80;83.30;;;;;;4884868;29;20140;-89
2023/10/01 07:30:51;;;;;;;11.43;4.50;;;11.80;83.20;;;;;;4884890;29;20055;-89
2023/10/01 07:33:20;;;;;;;11.07;3.60;;;11.90;83.10;;;;;;4872720;29;20122;-89
2023/10/01 07:35:58;;;;;;;12.25;3.53;;;12.00;83.30;;;;;;4888338;29;20056;-89
2023/10/01 07:38:29;;;;;;;13.55;3.78;;;12.00;83.30;;;;;;4884803;29;20053;-89
2023/10/01 07:40:58;;;;;;;13.27;3.55;;;12.00;83.10;;;;;;4872341;29;20041;-89
2023/10/01 07:43:30;;;;;;;9.80;3.30;;;12.00;83.00;;;;;;4890423;29;20131;-89
2023/10/01 07:46:01;;;;;;;11.68;3.33;;;12.10;83.10;;;;;;4892744;29;20072;-89
2023/10/01 07:48:29;;;;;;;11.52;3.67;;;12.00;82.80;;;;;;4870462;29;20068;-89
2023/10/01 07:50:58;;;;;;;11.32;3.53;;;12.00;82.70;;;;;;4887794;29;20108;-89
2023/10/01 07:53:41;;;;;;;15.90;3.60;;;12.00;83.10;;;;;;4890228;29;20080;-89
2023/10/01 07:56:15;;;;;;;9.93;3.47;;;12.10;83.40;;;;;;4887582;29;20105;-89
2023/10/01 07:58:45;;;;;;;11.05;3.75;;;12.20;83.40;;;;;;4882166;29;20144;-89
2023/10/01 08:01:36;;;;;;;10.07;3.42;;;12.30;83.00;;;;;;4882453;29;20049;-89
2023/10/01 08:04:08;;;;;;;9.05;3.13;;;12.40;82.80;;;;;;4884863;29;20072;-89
2023/10/01 08:06:42;;;;;;;8.93;3.28;;;12.50;82.20;;;;;;4888799;29;20084;-88
2023/10/01 08:09:12;;;;;;;9.23;3.77;;;12.50;82.10;;;;;;4880298;29;20079;-89
2023/10/01 08:11:58;;;;;;;10.73;3.03;;;12.50;81.90;;;;;;4875775;29;20048;-89
2023/10/01 08:14:26;;;;;;;11.43;3.55;;;12.60;82.10;;;;;;4886797;29;20045;-89
2023/10/01 08:16:57;;;;;;;10.43;3.55;;;12.70;81.20;;;;;;4890010;29;20132;-89
2023/10/01 08:19:41;;;;;;;10.52;3.33;;;12.70;81.50;;;;;;4886488;29;20049;-88
2023/10/01 08:22:14;;;;;;;11.17;3.50;;;12.80;81.90;;;;;;4886844;29;20040;-88
2023/10/01 08:24:45;;;;;;;10.68;3.70;;;13.00;81.70;;;;;;4876446;29;20073;-89
2023/10/01 08:27:14;;;;;;;14.75;3.42;;;13.00;81.40;;;;;;4889919;29;20053;-89
2023/10/01 08:30:17;;;;;;;10.93;3.38;;;13.10;80.60;;;;;;4889574;29;20151;-89
2023/10/01 08:32:53;;;;;;;11.00;3.38;;;13.10;79.90;;;;;;4893177;29;20499;-89
2023/10/01 08:35:23;;;;;;;10.80;4.27;;;13.20;80.20;;;;;;4894739;29;20526;-88
2023/10/01 08:37:59;;;;;;;14.80;4.15;;;13.30;80.40;;;;;;4890824;29;20456;-89
2023/10/01 08:40:30;;;;;;;11.60;3.95;;;13.40;79.90;;;;;;4889265;29;20407;-88
2023/10/01 08:43:01;;;;;;;9.45;3.90;;;13.50;79.60;;;;;;4879629;29;20052;-89
2023/10/01 08:45:37;;;;;;;9.70;3.45;;;13.50;80.70;;;;;;4892838;29;20049;-89
2023/10/01 08:48:17;;;;;;;12.27;3.80;;;13.60;79.40;;;;;;4892249;29;20063;-89
2023/10/01 08:50:45;;;;;;;9.13;3.15;;;13.60;79.50;;;;;;4889422;29;20061;-89
2023/10/01 08:53:13;;;;;;;11.68;3.50;;;13.70;79.80;;;;;;4891698;29;20061;-89
2023/10/01 09:00:48;;;;;;;11.83;3.90;;;13.90;78.80;;;;;;4892192;29;20041;-89
2023/10/01 09:03:28;;;;;;;10.57;3.75;;;14.00;78.40;;;;;;4890991;29;20139;-89
2023/10/01 09:06:44;;;;;;;13.52;4.07;;;14.10;77.80;;;;;;4872249;29;20049;-89
2023/10/01 09:08:54;;;;;;;13.85;3.85;;;14.30;78.10;;;;;;4883025;29;20060;-89
2023/10/01 09:11:35;;;;;;;11.07;4.13;;;14.50;77.90;;;;;;4887724;29;20057;-88
2023/10/01 09:14:20;;;;;;;15.80;4.93;;;14.50;77.10;;;;;;4896285;29;20086;-89
2023/10/01 09:16:57;;;;;;;14.38;4.65;;;14.50;77.00;;;;;;4873114;29;20396;-89
2023/10/01 09:19:37;;;;;;;15.48;5.93;;;14.60;77.70;;;;;;4889235;29;20053;-89
2023/10/01 09:22:08;;;;;;;18.48;4.75;;;14.90;77.10;;;;;;4891148;29;20053;-89
2023/10/01 09:24:38;;;;;;;16.67;4.50;;;15.00;75.40;;;;;;4875072;29;20049;-89
2023/10/01 09:27:28;;;;;;;12.90;3.90;;;15.10;74.40;;;;;;4890352;29;20109;-89
2023/10/01 09:30:26;;;;;;;9.43;3.22;;;15.20;73.90;;;;;;4878583;29;20048;-89
2023/10/01 09:32:55;;;;;;;13.18;4.00;;;15.30;74.60;;;;;;4888800;29;20067;-88
2023/10/01 09:35:39;;;;;;;15.55;3.30;;;15.50;73.10;;;;;;4889825;29;20060;-89
2023/10/01 09:38:15;;;;;;;10.63;3.55;;;15.70;74.10;;;;;;4881061;29;20154;-89
2023/10/01 09:40:47;;;;;;;11.33;3.33;;;15.90;73.70;;;;;;4875497;29;20053;-89
2023/10/01 09:43:19;;;;;;;14.60;3.50;;;16.00;72.90;;;;;;4873470;29;20045;-89
2023/10/01 09:45:54;;;;;;;11.38;3.50;;;16.10;73.10;;;;;;4888704;29;20045;-89
2023/10/01 09:48:30;;;;;;;8.57;2.67;;;16.20;71.60;;;;;;4886292;29;20415;-89
2023/10/01 09:51:07;;;;;;;16.13;3.10;;;16.40;70.80;;;;;;4890687;29;20056;-88
2023/10/01 09:53:44;;;;;;;12.40;2.40;;;16.40;69.50;;;;;;4874879;29;20061;-89
2023/10/01 09:56:26;;;;;;;7.72;2.08;;;16.40;68.80;;;;;;4872476;29;20057;-89
2023/10/01 09:59:03;;;;;;;9.20;2.17;;;16.50;70.70;;;;;;4877434;29;20399;-89
2023/10/01 10:01:33;;;;;;;10.13;2.70;;;16.50;71.60;;;;;;4891932;29;20139;-89
2023/10/01 10:04:07;;;;;;;8.90;2.17;;;16.60;71.40;;;;;;4874993;29;20041;-89
2023/10/01 10:06:35;;;;;;;10.60;2.73;;;16.70;69.10;;;;;;4883631;29;20499;-90
2023/10/01 10:09:07;;;;;;;13.02;3.03;;;16.80;68.70;;;;;;4889025;29;20053;-92
2023/10/01 10:11:40;;;;;;;13.07;3.08;;;16.90;69.90;;;;;;4887658;29;20525;-92
2023/10/01 10:14:28;;;;;;;9.18;2.90;;;17.00;68.90;;;;;;4865546;29;20100;-91
2023/10/01 10:17:38;;;;;;;10.90;3.15;;;17.00;67.40;;;;;;4896100;29;20381;-92
2023/10/01 10:20:00;;;;;;;9.87;2.40;;;17.20;67.70;;;;;;4878243;29;20055;-91
2023/10/01 10:22:32;;;;;;;11.35;2.75;;;17.30;67.50;;;;;;4883895;29;20123;-91
2023/10/01 10:25:25;;;;;;;9.85;2.10;;;17.30;68.60;;;;;;4882417;29;20504;-92
2023/10/01 10:27:56;;;;;;;9.93;1.88;;;17.40;65.70;;;;;;4883789;29;20060;-92
2023/10/01 10:30:27;;;;;;;10.82;1.90;;;17.40;67.40;;;;;;4892715;29;20508;-93
2023/10/01 10:33:16;;;;;;;8.83;2.20;;;17.50;65.40;;;;;;4889729;29;20135;-92
2023/10/01 10:35:49;;;;;;;9.20;2.20;;;17.50;65.00;;;;;;4891569;29;20056;-89
2023/10/01 10:38:54;;;;;;;7.97;1.90;;;17.50;65.50;;;;;;4874653;29;20152;-89
2023/10/01 10:41:25;;;;;;;8.95;1.67;;;17.50;64.80;;;;;;4883673;29;20053;-89
2023/10/01 10:44:08;;;;;;;9.35;1.75;;;17.50;62.40;;;;;;4892972;29;20060;-89
2023/10/01 10:47:00;;;;;;;6.83;1.90;;;17.50;63.50;;;;;;4891190;29;20178;-90
2023/10/01 10:49:53;;;;;;;6.53;1.40;;;17.60;63.80;;;;;;4883236;29;20430;-92
2023/10/01 10:52:31;;;;;;;8.35;1.88;;;17.60;62.80;;;;;;4880692;29;20057;-92
2023/10/01 10:55:18;;;;;;;10.25;1.83;;;17.50;62.90;;;;;;4865275;29;20080;-92
2023/10/01 10:57:49;;;;;;;10.52;1.77;;;17.50;63.80;;;;;;4880743;29;20140;-91
2023/10/01 11:00:27;;;;;;;8.13;1.90;;;17.50;65.10;;;;;;4893885;29;20120;-92
2023/10/01 11:02:57;;;;;;;7.90;1.65;;;17.50;63.10;;;;;;4883648;29;20048;-92
2023/10/01 11:05:30;;;;;;;9.70;1.90;;;17.50;63.30;;;;;;4880323;29;20125;-92
2023/10/01 11:08:02;;;;;;;6.47;1.88;;;17.50;62.90;;;;;;4896122;29;20061;-92
2023/10/01 11:10:45;;;;;;;6.93;1.95;;;17.50;62.30;;;;;;4880452;29;20057;-92
2023/10/01 11:13:13;;;;;;;9.13;1.70;;;17.50;62.60;;;;;;4895851;29;20057;-92
2023/10/01 11:15:41;;;;;;;9.95;2.05;;;17.50;62.50;;;;;;4864402;29;20156;-92
2023/10/01 11:18:11;;;;;;;9.45;2.00;;;17.50;62.60;;;;;;4880020;29;20049;-92
2023/10/01 11:20:45;;;;;;;9.40;2.47;;;17.60;62.50;;;;;;4864596;29;20109;-92
2023/10/01 11:23:16;;;;;;;7.82;2.22;;;17.70;62.70;;;;;;4880170;29;20052;-92
2023/10/01 11:25:47;;;;;;;9.17;1.87;;;17.70;62.00;;;;;;4880296;29;20053;-92
2023/10/01 11:28:15;;;;;;;8.40;1.90;;;17.60;61.20;;;;;;4879874;29;20097;-93
2023/10/01 11:30:42;;;;;;;8.80;2.17;;;17.70;61.60;;;;;;4864764;29;20061;-92
2023/10/01 11:33:13;;;;;;;9.43;2.13;;;17.80;60.30;;;;;;4879520;29;20148;-91
2023/10/01 11:35:59;;;;;;;8.38;1.60;;;18.00;61.60;;;;;;4879625;29;20479;-92
2023/10/01 11:38:28;;;;;;;11.00;1.70;;;18.00;60.70;;;;;;4888156;29;20393;-92
2023/10/01 11:41:13;;;;;;;8.55;1.98;;;18.10;59.90;;;;;;4872121;29;20057;-92
2023/10/01 11:43:59;;;;;;;4.63;1.60;;;18.10;58.60;;;;;;4881780;29;20112;-92
2023/10/01 11:46:59;;;;;;;9.15;2.05;;;18.10;58.10;;;;;;4898166;29;20507;-92
2023/10/01 11:49:34;;;;;;;7.75;2.10;;;18.10;58.80;;;;;;4882695;29;20058;-91
2023/10/01 11:52:21;;;;;;;8.23;1.80;;;18.10;58.80;;;;;;4898217;29;20499;-92
2023/10/01 11:54:54;;;;;;;11.75;2.13;;;18.20;58.40;;;;;;4898230;29;20052;-92
2023/10/01 11:57:23;;;;;;;8.88;2.03;;;18.20;59.20;;;;;;4903079;29;20147;-92
2023/10/01 11:59:58;;;;;;;7.45;2.08;;;18.30;58.10;;;;;;4904713;29;20509;-91
2023/10/01 12:02:29;;;;;;;10.38;2.13;;;18.30;59.60;;;;;;4904213;29;20057;-92
2023/10/01 12:04:58;;;;;;;8.73;2.23;;;18.50;57.90;;;;;;4899087;29;20057;-92
2023/10/01 12:07:39;;;;;;;8.45;2.10;;;18.50;58.00;;;;;;4885964;29;20576;-92
2023/10/01 12:10:31;;;;;;;5.93;1.98;;;18.50;58.00;;;;;;4870317;29;20059;-91
2023/10/01 12:12:57;;;;;;;9.98;2.45;;;18.40;56.30;;;;;;4885705;29;20053;-93
2023/10/01 12:18:15;;;;;;;5.53;1.73;;;18.40;56.20;;;;;;4885607;29;20053;-91
2023/10/01 12:20:50;;;;;;;7.93;1.90;;;18.50;54.80;;;;;;4885683;29;20088;-92
2023/10/01 12:23:22;;;;;;;8.40;2.35;;;18.50;55.50;;;;;;4885853;29;20101;-92
2023/10/01 12:25:53;;;;;;;11.45;2.47;;;18.50;56.80;;;;;;4885929;29;20049;-92
2023/10/01 12:28:25;;;;;;;7.40;2.13;;;18.40;56.10;;;;;;4888348;29;20056;-93
2023/10/01 12:31:08;;;;;;;8.90;2.30;;;18.30;57.70;;;;;;4885944;29;20235;-92
2023/10/01 12:33:46;;;;;;;7.50;2.20;;;18.40;58.80;;;;;;4870115;29;20129;-91
2023/10/01 12:41:48;;;;;;;7.38;1.60;;;18.80;58.40;;;;;;4885282;29;20053;-91
2023/10/01 12:44:31;;;;;;;8.50;1.83;;;18.90;56.80;;;;;;4869806;29;20097;-92
2023/10/01 12:47:06;;;;;;;7.97;1.80;;;18.80;55.50;;;;;;4885338;29;20060;-91
2023/10/01 12:49:38;;;;;;;6.75;1.73;;;18.90;56.00;;;;;;4870033;29;20056;-92
2023/10/01 12:52:14;;;;;;;7.00;1.55;;;18.90;54.40;;;;;;4884992;29;20049;-92
2023/10/01 12:54:41;;;;;;;8.40;1.75;;;19.00;53.10;;;;;;4885370;29;20538;-92
2023/10/01 12:57:23;;;;;;;8.63;1.63;;;19.00;53.30;;;;;;4885180;29;20049;-93
2023/10/01 13:00:43;;;;;;;9.00;1.73;;;19.00;54.00;;;;;;4889131;29;20052;-92
2023/10/01 13:02:43;;;;;;;7.63;2.03;;;19.10;53.20;;;;;;4903952;29;20053;-92
2023/10/01 13:05:21;;;;;;;9.20;2.03;;;19.10;54.90;;;;;;4904168;29;20072;-93
2023/10/01 13:07:50;;;;;;;6.65;2.22;;;19.40;54.60;;;;;;4894785;29;20061;-92
2023/10/01 13:10:32;;;;;;;7.43;1.80;;;19.30;50.40;;;;;;4882561;29;20049;-92
2023/10/01 13:13:05;;;;;;;6.15;1.60;;;19.50;50.90;;;;;;4881183;29;20079;-91
2023/10/01 13:15:40;;;;;;;4.75;1.73;;;19.60;50.70;;;;;;4900961;29;20067;-92
2023/10/01 13:18:18;;;;;;;5.50;1.63;;;19.70;50.30;;;;;;4900792;29;20148;-91
2023/10/01 13:23:29;;;;;;;7.50;2.30;;;19.70;50.60;;;;;;4889697;29;20086;-91
2023/10/01 13:26:05;;;;;;;7.82;1.80;;;19.50;51.60;;;;;;4891333;29;20057;-92
2023/10/01 13:28:43;;;;;;;7.90;2.25;;;19.50;50.90;;;;;;4900806;29;20083;-92
2023/10/01 14:09:58;;;;;;;7.70;2.47;;;19.30;54.60;;;;;;4899899;29;20063;-92
2023/10/01 14:15:21;;;;;;;9.98;1.75;;;19.30;52.50;;;;;;4881052;29;20057;-92
2023/10/01 14:18:00;;;;;;;7.30;1.67;;;19.50;52.80;;;;;;4865372;29;20064;-92
2023/10/01 14:21:12;;;;;;;7.72;1.90;;;19.40;53.50;;;;;;4878851;29;20139;-91
2023/10/01 14:23:26;;;;;;;8.20;1.90;;;19.50;54.30;;;;;;4879135;29;20057;-91
2023/10/01 14:26:33;;;;;;;6.63;1.65;;;19.40;53.60;;;;;;4866853;29;20068;-92
2023/10/01 14:28:49;;;;;;;6.53;2.00;;;19.50;53.80;;;;;;4882228;29;20063;-91